Dimmick, Illinois
Current Conditions -  °F | °C
As of 7:15 AM on Thursday 18 Dec 2014 (Local Time) from KVYS Reporting Station
Clear Clear  
Wind Chill: 20°   Ceiling: Unl
Heat Index: 20°   Visibility: 10mi
Dew Point: 18°   Wind: 3mph
Humidity: 91%   Direction: 250°WSW
Pressure: 30.31"   Gusts: NA
Location:  41.3955°N, 89.0957°W
Report Text: KVYS 181315Z AUTO 25003KT 10SM CLR M06/M08 A3031 RMK AO2 T10641077
Loading
Personal Weather Stations






























Interactive Weather Map New forecast layout! Learn more

10-Day Weather Forecast

Advertisements
Track Severe Weather on mobile